Time;durP1;ratioP1;P1;durP2;ratioP2;P2;SDS_P1;SDS_P2;PMS_P1;PMS_P2;Temp;Humidity;BMP_temperature;BMP_pressure;BME280_temperature;BME280_humidity;BME280_pressure;Samples;Min_cycle;Max_cycle;Signal;HPM_P1;HPM_P2
2021/12/12 00:01:19;;;;;;;41.77;17.70;;;;;;;;;;6215610;23;20210;-91
2021/12/12 00:04:33;;;;;;;45.37;17.80;;;;;;;;;;6214423;23;20168;-91
2021/12/12 00:07:39;;;;;;;45.07;19.47;;;;;;;;;;6214288;23;20162;-90
2021/12/12 00:10:47;;;;;;;47.33;18.53;;;;;;;;;;6216635;23;20194;-93
2021/12/12 00:13:55;;;;;;;39.67;16.67;;;;;;;;;;6215616;23;20167;-88
2021/12/12 00:17:01;;;;;;;43.40;17.00;;;;;;;;;;6214426;23;20598;-91
2021/12/12 00:20:08;;;;;;;41.30;17.03;;;;;;;;;;6215042;23;20671;-90
2021/12/12 00:23:13;;;;;;;40.37;17.23;;;;;;;;;;6212813;23;20167;-89
2021/12/12 00:26:18;;;;;;;42.57;16.50;;;;;;;;;;6213468;23;20183;-90
2021/12/12 00:29:25;;;;;;;36.87;16.00;;;;;;;;;;6214762;23;20245;-89
2021/12/12 00:32:34;;;;;;;36.33;15.47;;;;;;;;;;6213223;23;20182;-88
2021/12/12 00:35:41;;;;;;;34.37;14.90;;;;;;;;;;6214513;23;20210;-90
2021/12/12 00:38:47;;;;;;;39.80;16.33;;;;;;;;;;6213383;23;20174;-91
2021/12/12 00:41:56;;;;;;;39.00;15.67;;;;;;;;;;6213297;23;20198;-90
2021/12/12 00:45:05;;;;;;;32.63;15.27;;;;;;;;;;6213772;23;20166;-90
2021/12/12 00:48:12;;;;;;;36.67;15.67;;;;;;;;;;6211615;23;20687;-90
2021/12/12 00:51:20;;;;;;;35.40;15.17;;;;;;;;;;6213802;23;20151;-91
2021/12/12 00:54:31;;;;;;;39.60;15.37;;;;;;;;;;6213842;23;20171;-92
2021/12/12 00:57:40;;;;;;;37.80;15.87;;;;;;;;;;6213207;23;20253;-87
2021/12/12 01:00:49;;;;;;;41.33;17.03;;;;;;;;;;6214600;23;20208;-91
2021/12/12 01:04:00;;;;;;;39.47;17.37;;;;;;;;;;6212837;23;20216;-91
2021/12/12 01:07:06;;;;;;;34.57;14.83;;;;;;;;;;6213271;23;20151;-91
2021/12/12 01:10:14;;;;;;;33.50;15.00;;;;;;;;;;6212697;23;20238;-90
2021/12/12 01:13:20;;;;;;;38.50;15.70;;;;;;;;;;6211079;23;20243;-88
2021/12/12 01:16:26;;;;;;;39.80;16.80;;;;;;;;;;6212907;23;20151;-90
2021/12/12 01:19:35;;;;;;;35.43;15.50;;;;;;;;;;6212770;23;20218;-88
2021/12/12 01:22:40;;;;;;;39.77;16.33;;;;;;;;;;6212710;23;20303;-89
2021/12/12 01:25:48;;;;;;;36.60;15.40;;;;;;;;;;6212493;23;20167;-90
2021/12/12 01:28:54;;;;;;;38.27;16.23;;;;;;;;;;6212097;23;20166;-88
2021/12/12 01:32:01;;;;;;;42.07;16.77;;;;;;;;;;6212275;23;20279;-86
2021/12/12 01:35:16;;;;;;;62.43;24.60;;;;;;;;;;6212971;23;20234;-88
2021/12/12 01:41:58;;;;;;;43.80;17.73;;;;;;;;;;6111557;23;20193;-90
2021/12/12 01:45:06;;;;;;;37.23;15.90;;;;;;;;;;6214541;23;20171;-86
2021/12/12 01:48:16;;;;;;;38.83;15.73;;;;;;;;;;6213015;23;20167;-91
2021/12/12 01:51:23;;;;;;;34.60;15.50;;;;;;;;;;6215053;23;20538;-90
2021/12/12 01:54:31;;;;;;;34.07;14.97;;;;;;;;;;6212583;23;20682;-91
2021/12/12 01:57:37;;;;;;;41.23;16.73;;;;;;;;;;6216100;23;20167;-91
2021/12/12 02:00:47;;;;;;;39.07;17.30;;;;;;;;;;6215026;23;20156;-90
2021/12/12 02:03:55;;;;;;;39.10;17.33;;;;;;;;;;6215077;23;20179;-90
2021/12/12 02:07:04;;;;;;;36.13;15.90;;;;;;;;;;6215893;23;20163;-91
2021/12/12 02:10:22;;;;;;;40.87;16.83;;;;;;;;;;6214822;23;20199;-90
2021/12/12 02:13:28;;;;;;;39.37;16.27;;;;;;;;;;6212628;23;20164;-89
2021/12/12 02:16:44;;;;;;;39.30;16.97;;;;;;;;;;6214169;23;20284;-88
2021/12/12 02:20:03;;;;;;;40.93;16.17;;;;;;;;;;6215360;23;20247;-89
2021/12/12 02:23:18;;;;;;;35.20;15.13;;;;;;;;;;6215919;23;20179;-91
2021/12/12 02:36:34;;;;;;;40.33;17.10;;;;;;;;;;6215014;23;20163;-89
2021/12/12 02:39:43;;;;;;;43.00;17.87;;;;;;;;;;6215463;23;20251;-91
2021/12/12 02:42:48;;;;;;;46.27;18.80;;;;;;;;;;6216475;23;20225;-90
2021/12/12 02:45:56;;;;;;;37.27;16.90;;;;;;;;;;6215002;23;20626;-89
2021/12/12 02:49:07;;;;;;;40.57;17.67;;;;;;;;;;6218735;23;20236;-90
2021/12/12 02:52:14;;;;;;;45.73;17.63;;;;;;;;;;6215564;23;20171;-89
2021/12/12 02:55:29;;;;;;;41.53;18.47;;;;;;;;;;6215043;23;20167;-91
2021/12/12 02:58:34;;;;;;;42.30;18.70;;;;;;;;;;6216135;23;20289;-91
2021/12/12 03:01:40;;;;;;;44.23;18.33;;;;;;;;;;6214374;23;20174;-90
2021/12/12 03:04:46;;;;;;;43.13;18.63;;;;;;;;;;6214665;23;20171;-88
2021/12/12 03:07:51;;;;;;;42.83;17.90;;;;;;;;;;6215084;23;20670;-90
2021/12/12 03:11:01;;;;;;;40.47;18.07;;;;;;;;;;6234161;23;20199;-92
2021/12/12 03:14:07;;;;;;;43.33;18.10;;;;;;;;;;6215677;23;20154;-89
2021/12/12 03:17:14;;;;;;;38.40;17.57;;;;;;;;;;6216165;23;20191;-89
2021/12/12 03:20:24;;;;;;;44.30;19.00;;;;;;;;;;6215334;23;20186;-90
2021/12/12 03:23:33;;;;;;;40.40;17.23;;;;;;;;;;6216251;23;20150;-91
2021/12/12 03:26:47;;;;;;;46.37;18.77;;;;;;;;;;6213524;23;20175;-89
2021/12/12 03:29:53;;;;;;;44.83;17.87;;;;;;;;;;6214036;23;20252;-91
2021/12/12 03:32:58;;;;;;;42.73;18.23;;;;;;;;;;6217164;23;20185;-90
2021/12/12 03:36:07;;;;;;;43.23;17.60;;;;;;;;;;6215342;23;20226;-89
2021/12/12 03:39:14;;;;;;;38.83;17.60;;;;;;;;;;6216416;23;20155;-90
2021/12/12 03:42:24;;;;;;;38.33;17.13;;;;;;;;;;6216824;23;20170;-90
2021/12/12 03:45:30;;;;;;;40.87;18.37;;;;;;;;;;6213892;23;20175;-91
2021/12/12 03:48:36;;;;;;;44.67;18.93;;;;;;;;;;6216088;23;20607;-90
2021/12/12 03:51:42;;;;;;;43.17;18.57;;;;;;;;;;6215189;23;20242;-88
2021/12/12 03:54:48;;;;;;;47.07;20.37;;;;;;;;;;6216239;23;20171;-89
2021/12/12 03:57:57;;;;;;;44.47;19.07;;;;;;;;;;6216218;23;20175;-91
2021/12/12 04:01:05;;;;;;;43.47;19.20;;;;;;;;;;6213304;23;20183;-90
2021/12/12 04:04:13;;;;;;;45.50;19.03;;;;;;;;;;6215910;23;20167;-91
2021/12/12 04:07:20;;;;;;;48.03;19.60;;;;;;;;;;6214849;23;20172;-89
2021/12/12 04:10:25;;;;;;;47.83;21.53;;;;;;;;;;6214423;23;20190;-91
2021/12/12 04:13:31;;;;;;;47.30;19.37;;;;;;;;;;6215554;23;20179;-90
2021/12/12 04:16:38;;;;;;;44.50;19.53;;;;;;;;;;6213030;23;20242;-93
2021/12/12 04:19:44;;;;;;;49.80;19.87;;;;;;;;;;6214008;23;20166;-89
2021/12/12 04:22:49;;;;;;;45.03;19.60;;;;;;;;;;6215355;23;20183;-92
2021/12/12 04:25:56;;;;;;;41.63;18.47;;;;;;;;;;6215699;23;20231;-92
2021/12/12 04:29:06;;;;;;;47.77;20.03;;;;;;;;;;6214862;23;20163;-91
2021/12/12 04:32:13;;;;;;;47.27;20.00;;;;;;;;;;6215107;23;20166;-90
2021/12/12 04:35:21;;;;;;;45.97;19.77;;;;;;;;;;6213097;23;20557;-90
2021/12/12 04:38:26;;;;;;;44.73;20.03;;;;;;;;;;6216316;23;20163;-88
2021/12/12 04:41:32;;;;;;;48.73;20.33;;;;;;;;;;6215278;23;20167;-90
2021/12/12 04:44:40;;;;;;;46.70;20.97;;;;;;;;;;6214353;23;20618;-88
2021/12/12 04:51:17;;;;;;;45.93;20.23;;;;;;;;;;6214803;23;20303;-89
2021/12/12 04:54:24;;;;;;;44.40;20.17;;;;;;;;;;6215729;23;20159;-88
2021/12/12 04:57:31;;;;;;;47.53;19.43;;;;;;;;;;6213928;23;20189;-90
2021/12/12 05:01:02;;;;;;;48.10;21.13;;;;;;;;;;6214637;23;20154;-89
2021/12/12 05:04:12;;;;;;;52.80;21.87;;;;;;;;;;6215045;23;20174;-90
2021/12/12 05:07:18;;;;;;;50.57;20.17;;;;;;;;;;6213423;23;20167;-90
2021/12/12 05:10:26;;;;;;;52.60;20.70;;;;;;;;;;6213416;23;20190;-89
2021/12/12 05:13:34;;;;;;;49.43;20.80;;;;;;;;;;6214368;23;20183;-89
2021/12/12 05:16:41;;;;;;;46.63;20.87;;;;;;;;;;6216211;23;20167;-89
2021/12/12 05:19:51;;;;;;;55.73;21.83;;;;;;;;;;6214793;23;20155;-89
2021/12/12 05:23:00;;;;;;;46.83;21.43;;;;;;;;;;6213842;23;20206;-90
2021/12/12 05:26:06;;;;;;;46.77;19.90;;;;;;;;;;6213996;23;20183;-88
2021/12/12 05:29:14;;;;;;;49.40;20.93;;;;;;;;;;6213947;23;20182;-90
2021/12/12 05:32:22;;;;;;;46.37;20.67;;;;;;;;;;6214371;23;20187;-89
2021/12/12 05:35:39;;;;;;;48.60;20.77;;;;;;;;;;6214950;23;20167;-90
2021/12/12 05:38:45;;;;;;;50.47;21.33;;;;;;;;;;6213851;23;20237;-89
2021/12/12 05:41:53;;;;;;;51.10;21.67;;;;;;;;;;6214440;23;20176;-92
2021/12/12 05:45:00;;;;;;;46.97;21.17;;;;;;;;;;6214530;23;20211;-90
2021/12/12 05:48:05;;;;;;;55.00;21.67;;;;;;;;;;6215334;23;20176;-89
2021/12/12 05:51:15;;;;;;;53.83;21.40;;;;;;;;;;6215448;23;20202;-90
2021/12/12 05:54:25;;;;;;;47.77;21.37;;;;;;;;;;6216158;23;20193;-89
2021/12/12 05:57:31;;;;;;;54.93;22.87;;;;;;;;;;6215801;23;20483;-89
2021/12/12 06:00:38;;;;;;;56.00;22.60;;;;;;;;;;6215946;23;20163;-90
2021/12/12 06:03:44;;;;;;;54.77;22.10;;;;;;;;;;6217417;23;20613;-89
2021/12/12 06:06:51;;;;;;;55.10;22.83;;;;;;;;;;6215780;23;20250;-90
2021/12/12 06:09:56;;;;;;;60.97;23.43;;;;;;;;;;6215417;23;20162;-86
2021/12/12 06:13:02;;;;;;;54.67;23.13;;;;;;;;;;6216102;23;20210;-91
2021/12/12 06:16:08;;;;;;;61.73;24.83;;;;;;;;;;6213958;23;20151;-90
2021/12/12 06:19:16;;;;;;;59.83;24.60;;;;;;;;;;6214734;23;20231;-90
2021/12/12 06:22:22;;;;;;;59.83;25.30;;;;;;;;;;6214088;23;20252;-91
2021/12/12 06:25:28;;;;;;;58.17;23.03;;;;;;;;;;6216034;23;20194;-92
2021/12/12 06:28:35;;;;;;;58.87;25.10;;;;;;;;;;6215256;23;20179;-88
2021/12/12 06:31:43;;;;;;;58.80;24.80;;;;;;;;;;6215356;23;20197;-90
2021/12/12 06:34:49;;;;;;;58.00;23.20;;;;;;;;;;6214501;23;20174;-89
2021/12/12 06:37:56;;;;;;;61.87;24.77;;;;;;;;;;6214483;23;20167;-88
2021/12/12 06:41:02;;;;;;;61.07;24.60;;;;;;;;;;6214074;23;20166;-91
2021/12/12 06:44:09;;;;;;;59.63;24.03;;;;;;;;;;6215236;23;20167;-89
2021/12/12 06:47:15;;;;;;;62.70;23.90;;;;;;;;;;6215156;23;20150;-92
2021/12/12 06:50:21;;;;;;;59.37;24.47;;;;;;;;;;6216041;23;20160;-88
2021/12/12 06:53:31;;;;;;;63.90;25.90;;;;;;;;;;6216466;23;20155;-89
2021/12/12 06:56:38;;;;;;;62.93;24.23;;;;;;;;;;6218532;23;20163;-88
2021/12/12 06:59:48;;;;;;;69.53;25.80;;;;;;;;;;6219043;23;20187;-90
2021/12/12 07:02:55;;;;;;;67.90;25.87;;;;;;;;;;6217994;23;20191;-89
2021/12/12 07:06:02;;;;;;;67.93;26.50;;;;;;;;;;6217594;23;20187;-89
2021/12/12 07:09:11;;;;;;;63.20;25.00;;;;;;;;;;6200178;23;20211;-88
2021/12/12 07:12:22;;;;;;;65.67;25.80;;;;;;;;;;6217096;23;20194;-89
2021/12/12 07:15:31;;;;;;;63.13;25.13;;;;;;;;;;6216613;23;20183;-90
2021/12/12 07:18:36;;;;;;;57.57;24.80;;;;;;;;;;6216764;23;20191;-92
2021/12/12 07:21:42;;;;;;;59.33;24.13;;;;;;;;;;6214688;23;20226;-90
2021/12/12 07:24:50;;;;;;;61.53;24.77;;;;;;;;;;6216184;23;20163;-90
